sensor_id;sensor_type;location;lat;lon;timestamp;pressure;altitude;pressure_sealevel;temperature;humidity
33506;BME280;19843;51.040;13.782;2023-01-29T00:02:00;101590.06;;;-0.22;71.02
33506;BME280;19843;51.040;13.782;2023-01-29T00:04:28;101581.28;;;-0.16;70.95
33506;BME280;19843;51.040;13.782;2023-01-29T00:06:56;101576.84;;;-0.08;70.89
33506;BME280;19843;51.040;13.782;2023-01-29T00:09:24;101568.94;;;-0.08;70.61
33506;BME280;19843;51.040;13.782;2023-01-29T00:11:51;101569.00;;;-0.20;70.79
33506;BME280;19843;51.040;13.782;2023-01-29T00:14:19;101580.44;;;-0.23;70.58
33506;BME280;19843;51.040;13.782;2023-01-29T00:16:47;101572.47;;;-0.16;70.56
33506;BME280;19843;51.040;13.782;2023-01-29T00:19:15;101568.97;;;-0.23;70.88
33506;BME280;19843;51.040;13.782;2023-01-29T00:21:42;101566.31;;;-0.18;70.81
33506;BME280;19843;51.040;13.782;2023-01-29T00:24:10;101569.84;;;-0.16;70.60
33506;BME280;19843;51.040;13.782;2023-01-29T00:26:38;101564.63;;;-0.23;71.26
33506;BME280;19843;51.040;13.782;2023-01-29T00:29:05;101559.34;;;-0.27;71.03
33506;BME280;19843;51.040;13.782;2023-01-29T00:31:32;101565.41;;;-0.08;71.18
33506;BME280;19843;51.040;13.782;2023-01-29T00:34:02;101561.97;;;-0.18;71.92
33506;BME280;19843;51.040;13.782;2023-01-29T00:36:29;101558.41;;;-0.11;71.40
33506;BME280;19843;51.040;13.782;2023-01-29T00:38:58;101552.22;;;-0.10;71.61
33506;BME280;19843;51.040;13.782;2023-01-29T00:41:29;101554.09;;;-0.36;71.82
33506;BME280;19843;51.040;13.782;2023-01-29T00:44:15;101545.34;;;-0.46;70.98
33506;BME280;19843;51.040;13.782;2023-01-29T00:47:00;101541.84;;;-0.45;71.02
33506;BME280;19843;51.040;13.782;2023-01-29T00:49:29;101541.75;;;-0.30;71.00
33506;BME280;19843;51.040;13.782;2023-01-29T00:51:57;101549.72;;;-0.39;70.59
33506;BME280;19843;51.040;13.782;2023-01-29T00:54:41;101541.84;;;-0.47;70.85
33506;BME280;19843;51.040;13.782;2023-01-29T00:57:09;101541.75;;;-0.30;70.81
33506;BME280;19843;51.040;13.782;2023-01-29T00:59:36;101541.78;;;-0.27;70.54
33506;BME280;19843;51.040;13.782;2023-01-29T01:02:04;101535.63;;;-0.30;70.84
33506;BME280;19843;51.040;13.782;2023-01-29T01:04:50;101539.16;;;-0.34;71.27
33506;BME280;19843;51.040;13.782;2023-01-29T01:07:18;101548.84;;;-0.39;70.92
33506;BME280;19843;51.040;13.782;2023-01-29T01:09:45;101552.38;;;-0.48;70.14
33506;BME280;19843;51.040;13.782;2023-01-29T01:12:30;101555.88;;;-0.40;70.29
33506;BME280;19843;51.040;13.782;2023-01-29T01:14:58;101560.28;;;-0.45;69.80
33506;BME280;19843;51.040;13.782;2023-01-29T01:17:25;101561.13;;;-0.34;69.85
33506;BME280;19843;51.040;13.782;2023-01-29T01:19:54;101558.47;;;-0.32;70.04
33506;BME280;19843;51.040;13.782;2023-01-29T01:22:21;101556.75;;;-0.44;70.10
33506;BME280;19843;51.040;13.782;2023-01-29T01:24:49;101561.13;;;-0.34;70.64
33506;BME280;19843;51.040;13.782;2023-01-29T01:27:16;101549.72;;;-0.42;70.80
33506;BME280;19843;51.040;13.782;2023-01-29T01:29:44;101547.06;;;-0.33;70.24
33506;BME280;19843;51.040;13.782;2023-01-29T01:32:12;101544.34;;;-0.14;70.57
33506;BME280;19843;51.040;13.782;2023-01-29T01:34:41;101534.72;;;-0.28;70.48
33506;BME280;19843;51.040;13.782;2023-01-29T01:37:11;101544.44;;;-0.31;70.56
33506;BME280;19843;51.040;13.782;2023-01-29T01:39:39;101540.94;;;-0.41;70.27
33506;BME280;19843;51.040;13.782;2023-01-29T01:42:10;101537.44;;;-0.46;70.89
33506;BME280;19843;51.040;13.782;2023-01-29T01:44:58;101538.28;;;-0.35;70.59
33506;BME280;19843;51.040;13.782;2023-01-29T01:47:33;101534.84;;;-0.55;71.20
33506;BME280;19843;51.040;13.782;2023-01-29T01:50:06;101523.38;;;-0.42;70.96
33506;BME280;19843;51.040;13.782;2023-01-29T01:52:40;101530.41;;;-0.46;70.94
33506;BME280;19843;51.040;13.782;2023-01-29T01:55:13;101522.50;;;-0.44;71.30
33506;BME280;19843;51.040;13.782;2023-01-29T01:57:45;101526.00;;;-0.36;71.54
33506;BME280;19843;51.040;13.782;2023-01-29T02:00:15;101532.13;;;-0.32;71.11
33506;BME280;19843;51.040;13.782;2023-01-29T02:02:45;101537.44;;;-0.45;71.87
33506;BME280;19843;51.040;13.782;2023-01-29T02:05:31;101535.66;;;-0.41;71.91
33506;BME280;19843;51.040;13.782;2023-01-29T02:08:23;101530.44;;;-0.52;72.11
33506;BME280;19843;51.040;13.782;2023-01-29T02:11:10;101521.66;;;-0.51;71.68
33506;BME280;19843;51.040;13.782;2023-01-29T02:13:38;101509.31;;;-0.46;71.79
33506;BME280;19843;51.040;13.782;2023-01-29T02:16:06;101524.28;;;-0.57;72.21
33506;BME280;19843;51.040;13.782;2023-01-29T02:18:33;101518.19;;;-0.60;72.12
33506;BME280;19843;51.040;13.782;2023-01-29T02:21:19;101516.41;;;-0.60;72.69
33506;BME280;19843;51.040;13.782;2023-01-29T02:24:13;101517.31;;;-0.61;72.32
33506;BME280;19843;51.040;13.782;2023-01-29T02:26:49;101509.41;;;-0.64;72.86
33506;BME280;19843;51.040;13.782;2023-01-29T02:29:27;101522.56;;;-0.59;72.98
33506;BME280;19843;51.040;13.782;2023-01-29T02:32:09;101514.66;;;-0.56;72.47
33506;BME280;19843;51.040;13.782;2023-01-29T02:34:46;101519.91;;;-0.55;72.62
33506;BME280;19843;51.040;13.782;2023-01-29T02:37:38;101510.31;;;-0.71;72.93
33506;BME280;19843;51.040;13.782;2023-01-29T02:40:16;101511.19;;;-0.75;73.13
33506;BME280;19843;51.040;13.782;2023-01-29T02:42:52;101511.22;;;-0.78;73.87
33506;BME280;19843;51.040;13.782;2023-01-29T02:45:30;101508.59;;;-0.88;73.91
33506;BME280;19843;51.040;13.782;2023-01-29T02:48:01;101516.50;;;-0.94;74.23
33506;BME280;19843;51.040;13.782;2023-01-29T02:50:31;101526.19;;;-1.10;74.80
33506;BME280;19843;51.040;13.782;2023-01-29T02:53:07;101509.50;;;-0.95;74.71
33506;BME280;19843;51.040;13.782;2023-01-29T02:55:39;101515.69;;;-1.16;74.65
33506;BME280;19843;51.040;13.782;2023-01-29T02:58:10;101520.03;;;-1.30;75.36
33506;BME280;19843;51.040;13.782;2023-01-29T03:00:43;101514.81;;;-1.38;75.65
33506;BME280;19843;51.040;13.782;2023-01-29T03:03:14;101513.03;;;-1.30;75.50
33506;BME280;19843;51.040;13.782;2023-01-29T03:05:49;101520.94;;;-1.22;75.38
33506;BME280;19843;51.040;13.782;2023-01-29T03:08:23;101514.78;;;-1.45;76.42
33506;BME280;19843;51.040;13.782;2023-01-29T03:11:03;101522.69;;;-1.27;76.34
33506;BME280;19843;51.040;13.782;2023-01-29T03:13:37;101520.94;;;-1.31;75.68
33506;BME280;19843;51.040;13.782;2023-01-29T03:16:10;101528.84;;;-1.45;76.12
33506;BME280;19843;51.040;13.782;2023-01-29T03:18:43;101527.03;;;-1.57;76.06
33506;BME280;19843;51.040;13.782;2023-01-29T03:21:18;101527.94;;;-1.49;76.59
33506;BME280;19843;51.040;13.782;2023-01-29T03:24:05;101525.34;;;-1.27;76.01
33506;BME280;19843;51.040;13.782;2023-01-29T03:26:52;101518.31;;;-1.42;75.87
33506;BME280;19843;51.040;13.782;2023-01-29T03:29:39;101511.28;;;-1.34;75.74
33506;BME280;19843;51.040;13.782;2023-01-29T03:32:28;101517.41;;;-1.21;75.71
33506;BME280;19843;51.040;13.782;2023-01-29T03:34:58;101526.16;;;-1.05;75.20
33506;BME280;19843;51.040;13.782;2023-01-29T03:37:31;101517.41;;;-1.12;74.17
33506;BME280;19843;51.040;13.782;2023-01-29T03:40:01;101526.16;;;-0.99;73.82
33506;BME280;19843;51.040;13.782;2023-01-29T03:42:37;101527.91;;;-0.96;73.93
33506;BME280;19843;51.040;13.782;2023-01-29T03:45:13;101534.06;;;-0.90;73.36
33506;BME280;19843;51.040;13.782;2023-01-29T03:47:45;101534.09;;;-1.02;73.95
33506;BME280;19843;51.040;13.782;2023-01-29T03:50:24;101526.19;;;-1.10;74.14
33506;BME280;19843;51.040;13.782;2023-01-29T03:53:01;101527.06;;;-1.28;74.09
33506;BME280;19843;51.040;13.782;2023-01-29T03:55:35;101523.56;;;-1.17;74.05
33506;BME280;19843;51.040;13.782;2023-01-29T03:58:11;101518.28;;;-1.23;73.88
33506;BME280;19843;51.040;13.782;2023-01-29T04:00:51;101525.31;;;-1.16;73.70
33506;BME280;19843;51.040;13.782;2023-01-29T04:03:23;101530.56;;;-1.30;73.89
33506;BME280;19843;51.040;13.782;2023-01-29T04:05:56;101527.94;;;-1.24;73.46
33506;BME280;19843;51.040;13.782;2023-01-29T04:08:39;101528.81;;;-1.42;73.46
33506;BME280;19843;51.040;13.782;2023-01-29T04:11:13;101528.84;;;-1.59;74.11
33506;BME280;19843;51.040;13.782;2023-01-29T04:13:42;101521.78;;;-1.66;74.27
33506;BME280;19843;51.040;13.782;2023-01-29T04:16:13;101517.41;;;-1.75;74.41
33506;BME280;19843;51.040;13.782;2023-01-29T04:18:45;101506.91;;;-1.70;75.39
33506;BME280;19843;51.040;13.782;2023-01-29T04:21:13;101507.75;;;-1.66;75.21
33506;BME280;19843;51.040;13.782;2023-01-29T04:23:40;101498.13;;;-1.77;74.89
33506;BME280;19843;51.040;13.782;2023-01-29T04:26:14;101484.97;;;-1.72;74.94
33506;BME280;19843;51.040;13.782;2023-01-29T04:28:53;101484.09;;;-1.76;74.92
33506;BME280;19843;51.040;13.782;2023-01-29T04:31:27;101477.97;;;-1.62;74.64
33506;BME280;19843;51.040;13.782;2023-01-29T04:34:05;101478.81;;;-1.66;74.39
33506;BME280;19843;51.040;13.782;2023-01-29T04:36:45;101479.72;;;-1.60;74.41
33506;BME280;19843;51.040;13.782;2023-01-29T04:39:18;101473.59;;;-1.68;75.07
33506;BME280;19843;51.040;13.782;2023-01-29T04:41:49;101471.81;;;-1.74;75.30
33506;BME280;19843;51.040;13.782;2023-01-29T04:44:22;101475.31;;;-1.85;75.56
33506;BME280;19843;51.040;13.782;2023-01-29T04:47:02;101480.56;;;-1.92;76.18
33506;BME280;19843;51.040;13.782;2023-01-29T04:49:37;101472.69;;;-1.95;75.98
33506;BME280;19843;51.040;13.782;2023-01-29T04:52:14;101467.38;;;-2.02;75.91
33506;BME280;19843;51.040;13.782;2023-01-29T04:54:53;101448.13;;;-1.84;75.58
33506;BME280;19843;51.040;13.782;2023-01-29T04:57:26;101453.41;;;-1.80;75.29
33506;BME280;19843;51.040;13.782;2023-01-29T04:59:58;101442.03;;;-1.70;74.88
33506;BME280;19843;51.040;13.782;2023-01-29T05:02:28;101436.75;;;-1.88;74.71
33506;BME280;19843;51.040;13.782;2023-01-29T05:04:58;101438.50;;;-1.89;74.91
33506;BME280;19843;51.040;13.782;2023-01-29T05:07:27;101429.75;;;-1.92;74.80
33506;BME280;19843;51.040;13.782;2023-01-29T05:09:57;101426.22;;;-1.80;75.57
33506;BME280;19843;51.040;13.782;2023-01-29T05:12:27;101431.50;;;-1.90;75.31
33506;BME280;19843;51.040;13.782;2023-01-29T05:15:00;101428.88;;;-1.97;75.28
33506;BME280;19843;51.040;13.782;2023-01-29T05:17:28;101427.09;;;-1.97;75.93
33506;BME280;19843;51.040;13.782;2023-01-29T05:19:57;101429.72;;;-2.04;76.11
33506;BME280;19843;51.040;13.782;2023-01-29T05:22:25;101433.25;;;-1.92;75.27
33506;BME280;19843;51.040;13.782;2023-01-29T05:24:53;101434.09;;;-1.91;75.84
33506;BME280;19843;51.040;13.782;2023-01-29T05:27:24;101432.34;;;-2.15;75.53
33506;BME280;19843;51.040;13.782;2023-01-29T05:30:13;101420.97;;;-2.03;75.30
33506;BME280;19843;51.040;13.782;2023-01-29T05:32:41;101416.59;;;-2.11;75.88
33506;BME280;19843;51.040;13.782;2023-01-29T05:35:09;101412.22;;;-2.01;76.10
33506;BME280;19843;51.040;13.782;2023-01-29T05:37:37;101408.72;;;-2.01;75.52
33506;BME280;19843;51.040;13.782;2023-01-29T05:40:05;101412.22;;;-1.95;75.17
33506;BME280;19843;51.040;13.782;2023-01-29T05:42:33;101416.59;;;-1.98;75.73
33506;BME280;19843;51.040;13.782;2023-01-29T05:45:01;101412.22;;;-1.96;75.68
33506;BME280;19843;51.040;13.782;2023-01-29T05:47:28;101419.22;;;-2.03;76.16
33506;BME280;19843;51.040;13.782;2023-01-29T05:49:56;101406.97;;;-1.95;76.18
33506;BME280;19843;51.040;13.782;2023-01-29T05:52:24;101418.31;;;-2.17;76.50
33506;BME280;19843;51.040;13.782;2023-01-29T05:54:52;101426.19;;;-2.14;76.02
33506;BME280;19843;51.040;13.782;2023-01-29T05:57:19;101412.19;;;-2.32;77.16
33506;BME280;19843;51.040;13.782;2023-01-29T05:59:47;101410.44;;;-2.23;76.85
33506;BME280;19843;51.040;13.782;2023-01-29T06:02:14;101412.22;;;-2.13;76.54
33506;BME280;19843;51.040;13.782;2023-01-29T06:04:42;101417.44;;;-2.19;76.35
33506;BME280;19843;51.040;13.782;2023-01-29T06:07:09;101427.94;;;-2.28;77.04
33506;BME280;19843;51.040;13.782;2023-01-29T06:09:38;101427.09;;;-2.06;76.54
33506;BME280;19843;51.040;13.782;2023-01-29T06:12:05;101434.97;;;-2.15;76.96
33506;BME280;19843;51.040;13.782;2023-01-29T06:14:33;101429.69;;;-2.26;77.24
33506;BME280;19843;51.040;13.782;2023-01-29T06:17:00;101419.16;;;-2.37;77.70
33506;BME280;19843;51.040;13.782;2023-01-29T06:19:28;101417.44;;;-2.22;76.95
33506;BME280;19843;51.040;13.782;2023-01-29T06:21:55;101432.31;;;-2.27;77.54
33506;BME280;19843;51.040;13.782;2023-01-29T06:24:22;101433.22;;;-2.27;77.54
33506;BME280;19843;51.040;13.782;2023-01-29T06:26:51;101444.63;;;-2.16;77.36
33506;BME280;19843;51.040;13.782;2023-01-29T06:29:19;101463.91;;;-2.03;76.42
33506;BME280;19843;51.040;13.782;2023-01-29T06:31:46;101463.03;;;-1.94;75.85
33506;BME280;19843;51.040;13.782;2023-01-29T06:34:14;101475.28;;;-1.89;76.34
33506;BME280;19843;51.040;13.782;2023-01-29T06:36:41;101472.69;;;-1.95;76.37
33506;BME280;19843;51.040;13.782;2023-01-29T06:39:09;101477.94;;;-1.78;76.44
33506;BME280;19843;51.040;13.782;2023-01-29T06:41:36;101471.81;;;-1.74;76.22
33506;BME280;19843;51.040;13.782;2023-01-29T06:44:05;101468.31;;;-1.62;75.82
33506;BME280;19843;51.040;13.782;2023-01-29T06:46:32;101468.31;;;-1.53;75.65
33506;BME280;19843;51.040;13.782;2023-01-29T06:49:00;101474.44;;;-1.40;75.60
33506;BME280;19843;51.040;13.782;2023-01-29T06:51:27;101470.03;;;-1.36;75.69
33506;BME280;19843;51.040;13.782;2023-01-29T06:53:54;101474.47;;;-1.38;73.99
33506;BME280;19843;51.040;13.782;2023-01-29T06:56:22;101485.88;;;-1.61;73.97
33506;BME280;19843;51.040;13.782;2023-01-29T06:58:50;101491.13;;;-1.49;73.45
33506;BME280;19843;51.040;13.782;2023-01-29T07:01:19;101504.25;;;-1.36;73.90
33506;BME280;19843;51.040;13.782;2023-01-29T07:04:02;101520.06;;;-1.42;74.00
33506;BME280;19843;51.040;13.782;2023-01-29T07:06:32;101512.16;;;-1.42;74.18
33506;BME280;19843;51.040;13.782;2023-01-29T07:09:00;101505.13;;;-1.34;73.70
33506;BME280;19843;51.040;13.782;2023-01-29T07:11:27;101512.16;;;-1.24;73.80
33506;BME280;19843;51.040;13.782;2023-01-29T07:13:54;101519.16;;;-1.41;73.46
33506;BME280;19843;51.040;13.782;2023-01-29T07:16:23;101521.81;;;-1.38;73.50
33506;BME280;19843;51.040;13.782;2023-01-29T07:18:51;101525.31;;;-1.38;73.46
33506;BME280;19843;51.040;13.782;2023-01-29T07:21:19;101531.44;;;-1.30;73.24
33506;BME280;19843;51.040;13.782;2023-01-29T07:23:46;101528.84;;;-1.22;73.30
33506;BME280;19843;51.040;13.782;2023-01-29T07:26:14;101524.41;;;-1.14;73.05
33506;BME280;19843;51.040;13.782;2023-01-29T07:28:41;101523.53;;;-1.05;73.33
33506;BME280;19843;51.040;13.782;2023-01-29T07:31:12;101522.63;;;-0.87;73.38
33506;BME280;19843;51.040;13.782;2023-01-29T07:33:43;101510.31;;;-0.80;72.86
33506;BME280;19843;51.040;13.782;2023-01-29T07:36:11;101509.44;;;-0.75;72.12
33506;BME280;19843;51.040;13.782;2023-01-29T07:38:39;101510.28;;;-0.73;72.14
33506;BME280;19843;51.040;13.782;2023-01-29T07:41:07;101506.78;;;-0.69;72.13
33506;BME280;19843;51.040;13.782;2023-01-29T07:43:35;101510.31;;;-0.70;71.74
33506;BME280;19843;51.040;13.782;2023-01-29T07:46:03;101497.13;;;-0.67;71.82
33506;BME280;19843;51.040;13.782;2023-01-29T07:48:30;101505.00;;;-0.67;71.71
33506;BME280;19843;51.040;13.782;2023-01-29T07:50:59;101504.16;;;-0.66;70.79
33506;BME280;19843;51.040;13.782;2023-01-29T07:53:27;101495.28;;;-0.52;70.74
33506;BME280;19843;51.040;13.782;2023-01-29T07:55:55;101489.19;;;-0.54;70.87
33506;BME280;19843;51.040;13.782;2023-01-29T07:58:22;101496.28;;;-0.70;71.22
33506;BME280;19843;51.040;13.782;2023-01-29T08:00:50;101490.94;;;-0.59;70.83
33506;BME280;19843;51.040;13.782;2023-01-29T08:03:18;101477.72;;;-0.49;71.07
33506;BME280;19843;51.040;13.782;2023-01-29T08:05:46;101468.88;;;-0.34;71.51
33506;BME280;19843;51.040;13.782;2023-01-29T08:08:15;101454.69;;;-0.07;70.33
33506;BME280;19843;51.040;13.782;2023-01-29T08:10:44;101455.47;;;0.05;70.24
33506;BME280;19843;51.040;13.782;2023-01-29T08:13:11;101447.50;;;0.12;70.06
33506;BME280;19843;51.040;13.782;2023-01-29T08:15:41;101448.25;;;0.27;69.05
33506;BME280;19843;51.040;13.782;2023-01-29T08:18:09;101449.13;;;0.29;68.35
33506;BME280;19843;51.040;13.782;2023-01-29T08:20:37;101450.00;;;0.31;68.30
33506;BME280;19843;51.040;13.782;2023-01-29T08:23:06;101447.28;;;0.40;68.38
33506;BME280;19843;51.040;13.782;2023-01-29T08:25:35;101444.59;;;0.43;68.34
33506;BME280;19843;51.040;13.782;2023-01-29T08:28:03;101424.31;;;0.51;68.07
33506;BME280;19843;51.040;13.782;2023-01-29T08:30:31;101441.91;;;0.51;67.93
33506;BME280;19843;51.040;13.782;2023-01-29T08:32:59;101440.88;;;0.69;67.83
33506;BME280;19843;51.040;13.782;2023-01-29T08:35:28;101439.09;;;0.71;68.15
33506;BME280;19843;51.040;13.782;2023-01-29T08:37:57;101439.19;;;0.61;67.73
33506;BME280;19843;51.040;13.782;2023-01-29T08:40:27;101444.88;;;0.12;69.08
33506;BME280;19843;51.040;13.782;2023-01-29T08:42:58;101443.94;;;0.19;70.04
33506;BME280;19843;51.040;13.782;2023-01-29T08:45:28;101439.38;;;0.40;69.00
33506;BME280;19843;51.040;13.782;2023-01-29T08:47:56;101443.84;;;0.29;69.69
33506;BME280;19843;51.040;13.782;2023-01-29T08:50:23;101444.69;;;0.34;69.50
33506;BME280;19843;51.040;13.782;2023-01-29T08:52:56;101451.91;;;0.12;69.68
33506;BME280;19843;51.040;13.782;2023-01-29T08:55:23;101450.03;;;0.25;69.99
33506;BME280;19843;51.040;13.782;2023-01-29T08:57:51;101457.22;;;0.07;71.17
33506;BME280;19843;51.040;13.782;2023-01-29T09:00:20;101452.88;;;-0.05;70.31
33506;BME280;19843;51.040;13.782;2023-01-29T09:02:48;101457.16;;;0.16;70.55
33506;BME280;19843;51.040;13.782;2023-01-29T09:05:15;101450.09;;;0.15;70.55
33506;BME280;19843;51.040;13.782;2023-01-29T09:07:43;101449.06;;;0.39;70.20
33506;BME280;19843;51.040;13.782;2023-01-29T09:10:10;101441.06;;;0.47;70.02
33506;BME280;19843;51.040;13.782;2023-01-29T09:12:38;101427.13;;;0.34;69.31
33506;BME280;19843;51.040;13.782;2023-01-29T09:15:06;101433.28;;;0.30;69.99
33506;BME280;19843;51.040;13.782;2023-01-29T09:17:35;101422.66;;;0.39;69.90
33506;BME280;19843;51.040;13.782;2023-01-29T09:20:03;101427.09;;;0.36;69.49
33506;BME280;19843;51.040;13.782;2023-01-29T09:22:32;101428.78;;;0.43;69.52
33506;BME280;19843;51.040;13.782;2023-01-29T09:25:00;101430.66;;;0.27;70.43
33506;BME280;19843;51.040;13.782;2023-01-29T09:27:27;101433.22;;;0.39;70.02
33506;BME280;19843;51.040;13.782;2023-01-29T09:29:55;101425.34;;;0.35;69.97
33506;BME280;19843;51.040;13.782;2023-01-29T09:32:23;101411.75;;;0.76;69.67
33506;BME280;19843;51.040;13.782;2023-01-29T09:35:11;101402.97;;;0.76;69.09
33506;BME280;19843;51.040;13.782;2023-01-29T09:37:39;101421.50;;;0.70;70.06
33506;BME280;19843;51.040;13.782;2023-01-29T09:40:22;101420.53;;;0.80;68.93
33506;BME280;19843;51.040;13.782;2023-01-29T09:42:55;101427.59;;;0.75;68.70
33506;BME280;19843;51.040;13.782;2023-01-29T09:45:25;101416.22;;;0.70;68.87
33506;BME280;19843;51.040;13.782;2023-01-29T09:47:55;101416.97;;;0.82;69.22
33506;BME280;19843;51.040;13.782;2023-01-29T09:50:29;101412.41;;;0.98;69.27
33506;BME280;19843;51.040;13.782;2023-01-29T09:53:00;101412.41;;;0.95;68.84
33506;BME280;19843;51.040;13.782;2023-01-29T09:55:31;101396.50;;;1.01;69.60
33506;BME280;19843;51.040;13.782;2023-01-29T09:58:04;101391.38;;;0.89;68.97
33506;BME280;19843;51.040;13.782;2023-01-29T10:00:37;101387.22;;;0.68;69.80
33506;BME280;19843;51.040;13.782;2023-01-29T10:03:22;101373.09;;;0.71;70.57
33506;BME280;19843;51.040;13.782;2023-01-29T10:06:04;101366.69;;;0.93;69.49
33506;BME280;19843;51.040;13.782;2023-01-29T10:09:07;101370.78;;;1.17;69.10
33506;BME280;19843;51.040;13.782;2023-01-29T10:11:45;101364.38;;;1.37;68.56
33506;BME280;19843;51.040;13.782;2023-01-29T10:14:20;101363.38;;;1.42;68.52
33506;BME280;19843;51.040;13.782;2023-01-29T10:16:59;101367.88;;;1.37;68.19
33506;BME280;19843;51.040;13.782;2023-01-29T10:19:42;101376.28;;;0.99;69.61
33506;BME280;19843;51.040;13.782;2023-01-29T10:25:14;101363.09;;;0.97;68.45
33506;BME280;19843;51.040;13.782;2023-01-29T10:27:47;101373.47;;;1.13;69.59
33506;BME280;19843;51.040;13.782;2023-01-29T10:30:27;101366.34;;;1.21;68.57
33506;BME280;19843;51.040;13.782;2023-01-29T10:32:58;101361.97;;;1.18;68.76
33506;BME280;19843;51.040;13.782;2023-01-29T10:35:30;101371.56;;;1.24;68.56
33506;BME280;19843;51.040;13.782;2023-01-29T10:38:14;101371.56;;;1.24;68.67
33506;BME280;19843;51.040;13.782;2023-01-29T10:40:51;101373.28;;;1.27;68.75
33506;BME280;19843;51.040;13.782;2023-01-29T10:43:27;101369.72;;;1.32;69.21
33506;BME280;19843;51.040;13.782;2023-01-29T10:46:05;101367.78;;;1.43;69.05
33506;BME280;19843;51.040;13.782;2023-01-29T10:48:40;101365.25;;;1.36;69.05
33506;BME280;19843;51.040;13.782;2023-01-29T10:51:21;101357.16;;;1.46;68.26
33506;BME280;19843;51.040;13.782;2023-01-29T10:54:06;101353.25;;;1.72;68.42
33506;BME280;19843;51.040;13.782;2023-01-29T10:56:47;101345.66;;;1.51;68.00
33506;BME280;19843;51.040;13.782;2023-01-29T10:59:34;101333.19;;;1.60;68.74
33506;BME280;19843;51.040;13.782;2023-01-29T11:02:12;101325.25;;;1.59;68.50
33506;BME280;19843;51.040;13.782;2023-01-29T11:04:41;101321.44;;;1.78;68.52
33506;BME280;19843;51.040;13.782;2023-01-29T11:07:09;101316.44;;;1.60;68.30
33506;BME280;19843;51.040;13.782;2023-01-29T11:09:41;101307.31;;;1.79;68.71
33506;BME280;19843;51.040;13.782;2023-01-29T11:12:12;101288.78;;;1.79;67.93
33506;BME280;19843;51.040;13.782;2023-01-29T11:14:44;101293.88;;;1.93;68.84
33506;BME280;19843;51.040;13.782;2023-01-29T11:17:15;101290.34;;;1.93;67.93
33506;BME280;19843;51.040;13.782;2023-01-29T11:19:45;101287.59;;;1.99;68.60
33506;BME280;19843;51.040;13.782;2023-01-29T11:22:14;101281.97;;;2.17;67.96
33506;BME280;19843;51.040;13.782;2023-01-29T11:24:44;101274.69;;;2.30;67.15
33506;BME280;19843;51.040;13.782;2023-01-29T11:27:13;101265.69;;;2.39;66.38
33506;BME280;19843;51.040;13.782;2023-01-29T11:29:42;101270.06;;;2.40;66.45
33506;BME280;19843;51.040;13.782;2023-01-29T11:32:13;101265.47;;;2.49;65.81
33506;BME280;19843;51.040;13.782;2023-01-29T11:35:01;101256.28;;;2.22;66.53
33506;BME280;19843;51.040;13.782;2023-01-29T11:37:34;101243.59;;;2.41;67.04
33506;BME280;19843;51.040;13.782;2023-01-29T11:40:33;101252.00;;;2.15;67.62
33506;BME280;19843;51.040;13.782;2023-01-29T11:43:18;101254.84;;;2.06;68.78
33506;BME280;19843;51.040;13.782;2023-01-29T11:45:46;101250.66;;;2.41;67.52
33506;BME280;19843;51.040;13.782;2023-01-29T11:48:16;101252.31;;;2.46;66.92
33506;BME280;19843;51.040;13.782;2023-01-29T11:50:50;101259.97;;;2.60;66.79
33506;BME280;19843;51.040;13.782;2023-01-29T11:53:26;101253.72;;;2.64;66.20
33506;BME280;19843;51.040;13.782;2023-01-29T11:55:59;101249.19;;;2.68;65.53
33506;BME280;19843;51.040;13.782;2023-01-29T11:58:28;101248.28;;;2.70;65.95
33506;BME280;19843;51.040;13.782;2023-01-29T12:00:57;101244.59;;;2.78;65.82
33506;BME280;19843;51.040;13.782;2023-01-29T12:03:31;101237.59;;;2.75;65.00
33506;BME280;19843;51.040;13.782;2023-01-29T12:06:02;101235.16;;;2.64;65.50
33506;BME280;19843;51.040;13.782;2023-01-29T12:08:34;101230.94;;;2.54;66.14
33506;BME280;19843;51.040;13.782;2023-01-29T12:11:09;101227.00;;;2.32;66.05
33506;BME280;19843;51.040;13.782;2023-01-29T12:13:38;101219.59;;;2.49;65.77
33506;BME280;19843;51.040;13.782;2023-01-29T12:16:17;101217.41;;;2.69;65.75
33506;BME280;19843;51.040;13.782;2023-01-29T12:18:50;101222.03;;;2.60;66.14
33506;BME280;19843;51.040;13.782;2023-01-29T12:21:25;101209.22;;;2.80;66.85
33506;BME280;19843;51.040;13.782;2023-01-29T12:23:59;101199.56;;;2.78;66.52
33506;BME280;19843;51.040;13.782;2023-01-29T12:26:32;101198.81;;;2.72;66.55
33506;BME280;19843;51.040;13.782;2023-01-29T12:29:18;101185.03;;;2.57;66.65
33506;BME280;19843;51.040;13.782;2023-01-29T12:31:56;101177.13;;;2.55;68.01
33506;BME280;19843;51.040;13.782;2023-01-29T12:34:32;101167.81;;;2.36;68.24
33506;BME280;19843;51.040;13.782;2023-01-29T12:37:12;101161.63;;;2.37;69.29
33506;BME280;19843;51.040;13.782;2023-01-29T12:39:43;101174.88;;;2.35;68.55
33506;BME280;19843;51.040;13.782;2023-01-29T12:42:15;101178.25;;;2.43;68.97
33506;BME280;19843;51.040;13.782;2023-01-29T12:44:46;101166.56;;;2.52;68.99
33506;BME280;19843;51.040;13.782;2023-01-29T12:47:19;101174.94;;;2.74;68.27
33506;BME280;19843;51.040;13.782;2023-01-29T12:49:51;101180.72;;;2.91;67.37
33506;BME280;19843;51.040;13.782;2023-01-29T12:52:22;101162.69;;;3.07;67.66
33506;BME280;19843;51.040;13.782;2023-01-29T12:54:56;101162.56;;;3.13;66.98
33506;BME280;19843;51.040;13.782;2023-01-29T12:57:39;101161.31;;;3.27;66.28
33506;BME280;19843;51.040;13.782;2023-01-29T13:00:12;101160.59;;;2.84;66.40
33506;BME280;19843;51.040;13.782;2023-01-29T13:02:47;101144.72;;;2.83;66.65
33506;BME280;19843;51.040;13.782;2023-01-29T13:05:20;101150.31;;;3.08;66.85
33506;BME280;19843;51.040;13.782;2023-01-29T13:07:53;101147.44;;;3.16;67.28
33506;BME280;19843;51.040;13.782;2023-01-29T13:10:27;101148.84;;;2.95;66.96
33506;BME280;19843;51.040;13.782;2023-01-29T13:12:59;101154.03;;;2.60;67.43